TS05 weather

CLOSED Progreso Airport
Progreso, Texas, United States

Public forecast

Using degrees Fahrenheit for public forecast. Weather courtesy of forecast.io.

Closest aviation weather report (METAR) to Progreso Airport

Closest report is Mid Valley Airport, 5.8 nm (10.7 km) NNW. Retrieved 2019/10/15 17:35 UTC (0 seconds ago):

KTXW 151735Z AUTO 17013KT 10SM SCT037 SCT110 33/22 A2988 RMK AO2 T03290215

Closest aviation forecast (TAF) to Progreso Airport

Forecast is more than 6 hours old.

Closest forecast is General Lucio Blanco International Airport, 15.7 nm (29.0 km) WSW. Retrieved 2019/10/15 06:00 UTC (11 hours ago):

TAF MMRX 150454Z 1506/1606 15005KT P6SM SCT020 FM151800 17010G20KT P6SM SKC BECMG 1602/1603 15010KT